sensor_id;sensor_type;location;lat;lon;timestamp;temperature;humidity
47590;DHT22;33316;52.298;9.056;2023-03-05T00:01:02;5.10;85.20
47590;DHT22;33316;52.298;9.056;2023-03-05T00:03:29;5.10;85.20
47590;DHT22;33316;52.298;9.056;2023-03-05T00:05:56;5.10;85.20
47590;DHT22;33316;52.298;9.056;2023-03-05T00:08:22;5.10;85.10
47590;DHT22;33316;52.298;9.056;2023-03-05T00:10:55;5.10;85.10
47590;DHT22;33316;52.298;9.056;2023-03-05T00:13:22;5.10;85.10
47590;DHT22;33316;52.298;9.056;2023-03-05T00:15:48;5.10;85.80
47590;DHT22;33316;52.298;9.056;2023-03-05T00:18:15;5.10;85.00
47590;DHT22;33316;52.298;9.056;2023-03-05T00:20:41;5.10;85.00
47590;DHT22;33316;52.298;9.056;2023-03-05T00:23:08;5.10;85.00
47590;DHT22;33316;52.298;9.056;2023-03-05T00:25:34;5.10;85.00
47590;DHT22;33316;52.298;9.056;2023-03-05T00:28:03;5.10;85.00
47590;DHT22;33316;52.298;9.056;2023-03-05T00:30:30;5.10;85.00
47590;DHT22;33316;52.298;9.056;2023-03-05T00:32:57;5.10;85.80
47590;DHT22;33316;52.298;9.056;2023-03-05T00:35:23;5.10;85.10
47590;DHT22;33316;52.298;9.056;2023-03-05T00:37:50;5.10;85.20
47590;DHT22;33316;52.298;9.056;2023-03-05T00:40:17;5.10;85.20
47590;DHT22;33316;52.298;9.056;2023-03-05T00:42:44;5.10;85.20
47590;DHT22;33316;52.298;9.056;2023-03-05T00:45:12;5.10;85.20
47590;DHT22;33316;52.298;9.056;2023-03-05T00:47:38;5.10;85.30
47590;DHT22;33316;52.298;9.056;2023-03-05T00:50:06;5.10;85.40
47590;DHT22;33316;52.298;9.056;2023-03-05T00:52:32;5.00;85.40
47590;DHT22;33316;52.298;9.056;2023-03-05T00:54:59;5.00;85.40
47590;DHT22;33316;52.298;9.056;2023-03-05T00:57:25;5.00;85.50
47590;DHT22;33316;52.298;9.056;2023-03-05T00:59:52;5.00;85.50
47590;DHT22;33316;52.298;9.056;2023-03-05T01:02:20;5.00;85.60
47590;DHT22;33316;52.298;9.056;2023-03-05T01:04:47;5.00;85.60
47590;DHT22;33316;52.298;9.056;2023-03-05T01:07:13;5.00;85.80
47590;DHT22;33316;52.298;9.056;2023-03-05T01:09:40;4.90;85.70
47590;DHT22;33316;52.298;9.056;2023-03-05T01:12:07;5.00;85.80
47590;DHT22;33316;52.298;9.056;2023-03-05T01:14:33;4.90;85.90
47590;DHT22;33316;52.298;9.056;2023-03-05T01:17:01;4.90;86.00
47590;DHT22;33316;52.298;9.056;2023-03-05T01:19:29;4.90;86.20
47590;DHT22;33316;52.298;9.056;2023-03-05T01:21:55;4.90;86.20
47590;DHT22;33316;52.298;9.056;2023-03-05T01:24:24;4.90;86.20
47590;DHT22;33316;52.298;9.056;2023-03-05T01:27:00;4.90;86.30
47590;DHT22;33316;52.298;9.056;2023-03-05T01:29:33;4.90;86.30
47590;DHT22;33316;52.298;9.056;2023-03-05T01:32:01;4.90;86.30
47590;DHT22;33316;52.298;9.056;2023-03-05T01:34:29;4.90;86.50
47590;DHT22;33316;52.298;9.056;2023-03-05T01:36:55;4.90;86.60
47590;DHT22;33316;52.298;9.056;2023-03-05T01:39:22;4.80;86.40
47590;DHT22;33316;52.298;9.056;2023-03-05T01:41:49;4.90;86.60
47590;DHT22;33316;52.298;9.056;2023-03-05T01:44:20;4.80;86.60
47590;DHT22;33316;52.298;9.056;2023-03-05T01:46:47;4.80;86.60
47590;DHT22;33316;52.298;9.056;2023-03-05T01:49:15;4.80;86.70
47590;DHT22;33316;52.298;9.056;2023-03-05T01:51:46;4.80;86.70
47590;DHT22;33316;52.298;9.056;2023-03-05T01:54:14;4.80;86.70
47590;DHT22;33316;52.298;9.056;2023-03-05T01:56:42;4.80;86.80
47590;DHT22;33316;52.298;9.056;2023-03-05T01:59:11;4.80;87.00
47590;DHT22;33316;52.298;9.056;2023-03-05T02:01:38;4.80;87.00
47590;DHT22;33316;52.298;9.056;2023-03-05T02:04:06;4.80;87.00
47590;DHT22;33316;52.298;9.056;2023-03-05T02:06:33;4.80;87.00
47590;DHT22;33316;52.298;9.056;2023-03-05T02:09:01;4.70;87.10
47590;DHT22;33316;52.298;9.056;2023-03-05T02:11:28;4.80;87.30
47590;DHT22;33316;52.298;9.056;2023-03-05T02:13:55;4.70;87.20
47590;DHT22;33316;52.298;9.056;2023-03-05T02:16:21;4.80;87.20
47590;DHT22;33316;52.298;9.056;2023-03-05T02:18:48;4.70;87.20
47590;DHT22;33316;52.298;9.056;2023-03-05T02:21:16;4.80;87.30
47590;DHT22;33316;52.298;9.056;2023-03-05T02:23:52;4.80;87.40
47590;DHT22;33316;52.298;9.056;2023-03-05T02:26:18;4.80;87.40
47590;DHT22;33316;52.298;9.056;2023-03-05T02:28:45;4.70;87.30
47590;DHT22;33316;52.298;9.056;2023-03-05T02:31:13;4.80;87.40
47590;DHT22;33316;52.298;9.056;2023-03-05T02:33:40;4.80;87.40
47590;DHT22;33316;52.298;9.056;2023-03-05T02:36:07;4.80;87.50
47590;DHT22;33316;52.298;9.056;2023-03-05T02:38:36;4.80;87.70
47590;DHT22;33316;52.298;9.056;2023-03-05T02:41:02;4.80;87.50
47590;DHT22;33316;52.298;9.056;2023-03-05T02:43:29;4.80;87.60
47590;DHT22;33316;52.298;9.056;2023-03-05T02:45:56;4.70;88.30
47590;DHT22;33316;52.298;9.056;2023-03-05T02:48:22;4.70;87.50
47590;DHT22;33316;52.298;9.056;2023-03-05T02:50:49;4.70;87.60
47590;DHT22;33316;52.298;9.056;2023-03-05T02:53:15;4.80;87.60
47590;DHT22;33316;52.298;9.056;2023-03-05T02:55:46;4.80;87.60
47590;DHT22;33316;52.298;9.056;2023-03-05T02:58:13;4.80;87.60
47590;DHT22;33316;52.298;9.056;2023-03-05T03:00:40;4.80;87.70
47590;DHT22;33316;52.298;9.056;2023-03-05T03:03:06;4.80;87.70
47590;DHT22;33316;52.298;9.056;2023-03-05T03:05:33;4.70;87.70
47590;DHT22;33316;52.298;9.056;2023-03-05T03:08:00;4.70;87.80
47590;DHT22;33316;52.298;9.056;2023-03-05T03:10:26;4.70;87.90
47590;DHT22;33316;52.298;9.056;2023-03-05T03:12:54;4.70;88.00
47590;DHT22;33316;52.298;9.056;2023-03-05T03:15:21;4.70;87.90
47590;DHT22;33316;52.298;9.056;2023-03-05T03:17:49;4.70;87.90
47590;DHT22;33316;52.298;9.056;2023-03-05T03:20:16;4.70;88.00
47590;DHT22;33316;52.298;9.056;2023-03-05T03:22:43;4.70;88.00
47590;DHT22;33316;52.298;9.056;2023-03-05T03:25:10;4.70;88.00
47590;DHT22;33316;52.298;9.056;2023-03-05T03:27:39;4.70;88.10
47590;DHT22;33316;52.298;9.056;2023-03-05T03:30:07;4.70;88.00
47590;DHT22;33316;52.298;9.056;2023-03-05T03:32:34;4.70;88.30
47590;DHT22;33316;52.298;9.056;2023-03-05T03:35:01;4.70;88.30
47590;DHT22;33316;52.298;9.056;2023-03-05T03:37:28;4.70;88.30
47590;DHT22;33316;52.298;9.056;2023-03-05T03:39:55;4.70;88.40
47590;DHT22;33316;52.298;9.056;2023-03-05T03:42:22;4.70;88.40
47590;DHT22;33316;52.298;9.056;2023-03-05T03:44:49;4.70;88.40
47590;DHT22;33316;52.298;9.056;2023-03-05T03:47:17;4.70;88.40
47590;DHT22;33316;52.298;9.056;2023-03-05T03:49:43;4.70;89.20
47590;DHT22;33316;52.298;9.056;2023-03-05T03:52:10;4.70;88.40
47590;DHT22;33316;52.298;9.056;2023-03-05T03:54:37;4.70;88.40
47590;DHT22;33316;52.298;9.056;2023-03-05T03:57:03;4.70;88.50
47590;DHT22;33316;52.298;9.056;2023-03-05T03:59:30;4.70;88.50
47590;DHT22;33316;52.298;9.056;2023-03-05T04:01:57;4.70;88.50
47590;DHT22;33316;52.298;9.056;2023-03-05T04:04:24;4.70;88.60
47590;DHT22;33316;52.298;9.056;2023-03-05T04:06:53;4.60;88.60
47590;DHT22;33316;52.298;9.056;2023-03-05T04:09:19;4.70;88.60
47590;DHT22;33316;52.298;9.056;2023-03-05T04:11:46;4.60;88.60
47590;DHT22;33316;52.298;9.056;2023-03-05T04:14:13;4.60;88.60
47590;DHT22;33316;52.298;9.056;2023-03-05T04:16:39;4.60;88.60
47590;DHT22;33316;52.298;9.056;2023-03-05T04:19:06;4.60;88.60
47590;DHT22;33316;52.298;9.056;2023-03-05T04:21:34;4.60;88.70
47590;DHT22;33316;52.298;9.056;2023-03-05T04:24:00;4.60;88.70
47590;DHT22;33316;52.298;9.056;2023-03-05T04:26:27;4.60;88.80
47590;DHT22;33316;52.298;9.056;2023-03-05T04:28:53;4.60;88.70
47590;DHT22;33316;52.298;9.056;2023-03-05T04:31:20;4.60;88.70
47590;DHT22;33316;52.298;9.056;2023-03-05T04:33:48;4.60;88.70
47590;DHT22;33316;52.298;9.056;2023-03-05T04:36:14;4.60;88.70
47590;DHT22;33316;52.298;9.056;2023-03-05T04:38:42;4.60;88.70
47590;DHT22;33316;52.298;9.056;2023-03-05T04:41:09;4.60;88.80
47590;DHT22;33316;52.298;9.056;2023-03-05T04:43:35;4.60;88.70
47590;DHT22;33316;52.298;9.056;2023-03-05T04:46:02;4.60;88.70
47590;DHT22;33316;52.298;9.056;2023-03-05T04:48:28;4.70;88.70
47590;DHT22;33316;52.298;9.056;2023-03-05T04:50:55;4.60;88.70
47590;DHT22;33316;52.298;9.056;2023-03-05T04:53:22;4.60;88.70
47590;DHT22;33316;52.298;9.056;2023-03-05T04:55:52;4.60;88.70
47590;DHT22;33316;52.298;9.056;2023-03-05T04:58:19;4.60;89.40
47590;DHT22;33316;52.298;9.056;2023-03-05T05:00:48;4.60;88.70
47590;DHT22;33316;52.298;9.056;2023-03-05T05:03:15;4.60;88.70
47590;DHT22;33316;52.298;9.056;2023-03-05T05:05:41;4.60;88.70
47590;DHT22;33316;52.298;9.056;2023-03-05T05:08:08;4.60;88.80
47590;DHT22;33316;52.298;9.056;2023-03-05T05:10:35;4.60;88.70
47590;DHT22;33316;52.298;9.056;2023-03-05T05:13:05;4.60;88.80
47590;DHT22;33316;52.298;9.056;2023-03-05T05:15:31;4.60;88.90
47590;DHT22;33316;52.298;9.056;2023-03-05T05:17:58;4.60;88.90
47590;DHT22;33316;52.298;9.056;2023-03-05T05:20:24;4.60;88.90
47590;DHT22;33316;52.298;9.056;2023-03-05T05:22:51;4.60;88.90
47590;DHT22;33316;52.298;9.056;2023-03-05T05:25:17;4.60;88.90
47590;DHT22;33316;52.298;9.056;2023-03-05T05:27:44;4.60;89.00
47590;DHT22;33316;52.298;9.056;2023-03-05T05:30:12;4.60;88.90
47590;DHT22;33316;52.298;9.056;2023-03-05T05:32:39;4.60;88.80
47590;DHT22;33316;52.298;9.056;2023-03-05T05:35:06;4.60;88.90
47590;DHT22;33316;52.298;9.056;2023-03-05T05:37:32;4.60;89.00
47590;DHT22;33316;52.298;9.056;2023-03-05T05:39:59;4.60;89.00
47590;DHT22;33316;52.298;9.056;2023-03-05T05:42:26;4.60;89.00
47590;DHT22;33316;52.298;9.056;2023-03-05T05:44:53;4.60;89.00
47590;DHT22;33316;52.298;9.056;2023-03-05T05:47:21;4.60;89.10
47590;DHT22;33316;52.298;9.056;2023-03-05T05:49:48;4.60;89.00
47590;DHT22;33316;52.298;9.056;2023-03-05T05:52:15;4.60;89.00
47590;DHT22;33316;52.298;9.056;2023-03-05T05:54:41;4.60;89.00
47590;DHT22;33316;52.298;9.056;2023-03-05T05:57:08;4.60;89.10
47590;DHT22;33316;52.298;9.056;2023-03-05T05:59:34;4.60;89.10
47590;DHT22;33316;52.298;9.056;2023-03-05T06:02:01;4.60;89.10
47590;DHT22;33316;52.298;9.056;2023-03-05T06:04:29;4.60;89.10
47590;DHT22;33316;52.298;9.056;2023-03-05T06:06:57;4.60;89.10
47590;DHT22;33316;52.298;9.056;2023-03-05T06:09:23;4.60;89.20
47590;DHT22;33316;52.298;9.056;2023-03-05T06:11:50;4.60;89.30
47590;DHT22;33316;52.298;9.056;2023-03-05T06:14:16;4.50;89.30
47590;DHT22;33316;52.298;9.056;2023-03-05T06:16:43;4.60;89.40
47590;DHT22;33316;52.298;9.056;2023-03-05T06:19:10;4.60;89.40
47590;DHT22;33316;52.298;9.056;2023-03-05T06:21:38;4.60;89.50
47590;DHT22;33316;52.298;9.056;2023-03-05T06:24:05;4.60;89.50
47590;DHT22;33316;52.298;9.056;2023-03-05T06:26:32;4.60;89.50
47590;DHT22;33316;52.298;9.056;2023-03-05T06:28:59;4.60;89.60
47590;DHT22;33316;52.298;9.056;2023-03-05T06:31:26;4.50;89.90
47590;DHT22;33316;52.298;9.056;2023-03-05T06:33:53;4.50;89.90
47590;DHT22;33316;52.298;9.056;2023-03-05T06:36:21;4.50;89.90
47590;DHT22;33316;52.298;9.056;2023-03-05T06:38:49;4.50;90.00
47590;DHT22;33316;52.298;9.056;2023-03-05T06:41:17;4.50;90.00
47590;DHT22;33316;52.298;9.056;2023-03-05T06:43:44;4.50;90.00
47590;DHT22;33316;52.298;9.056;2023-03-05T06:46:12;4.50;90.10
47590;DHT22;33316;52.298;9.056;2023-03-05T06:48:38;4.50;90.10
47590;DHT22;33316;52.298;9.056;2023-03-05T06:51:11;4.40;90.10
47590;DHT22;33316;52.298;9.056;2023-03-05T06:53:38;4.40;90.20
47590;DHT22;33316;52.298;9.056;2023-03-05T06:56:06;4.50;90.20
47590;DHT22;33316;52.298;9.056;2023-03-05T06:58:32;4.50;90.30
47590;DHT22;33316;52.298;9.056;2023-03-05T07:00:59;4.50;90.30
47590;DHT22;33316;52.298;9.056;2023-03-05T07:03:25;4.50;90.40
47590;DHT22;33316;52.298;9.056;2023-03-05T07:05:52;4.50;90.40
47590;DHT22;33316;52.298;9.056;2023-03-05T07:08:18;4.50;90.40
47590;DHT22;33316;52.298;9.056;2023-03-05T07:10:45;4.50;90.40
47590;DHT22;33316;52.298;9.056;2023-03-05T07:13:13;4.50;90.40
47590;DHT22;33316;52.298;9.056;2023-03-05T07:15:40;4.50;90.40
47590;DHT22;33316;52.298;9.056;2023-03-05T07:18:06;4.50;90.50
47590;DHT22;33316;52.298;9.056;2023-03-05T07:20:33;4.50;90.50
47590;DHT22;33316;52.298;9.056;2023-03-05T07:23:00;4.50;90.50
47590;DHT22;33316;52.298;9.056;2023-03-05T07:25:26;4.50;90.50
47590;DHT22;33316;52.298;9.056;2023-03-05T07:27:53;4.60;90.50
47590;DHT22;33316;52.298;9.056;2023-03-05T07:30:21;4.60;90.50
47590;DHT22;33316;52.298;9.056;2023-03-05T07:32:48;4.60;90.50
47590;DHT22;33316;52.298;9.056;2023-03-05T07:35:14;4.60;90.60
47590;DHT22;33316;52.298;9.056;2023-03-05T07:37:41;4.60;90.60
47590;DHT22;33316;52.298;9.056;2023-03-05T07:40:08;4.60;90.60
47590;DHT22;33316;52.298;9.056;2023-03-05T07:42:35;4.60;90.60
47590;DHT22;33316;52.298;9.056;2023-03-05T07:45:02;4.70;90.60
47590;DHT22;33316;52.298;9.056;2023-03-05T07:47:29;4.70;90.50
47590;DHT22;33316;52.298;9.056;2023-03-05T07:49:56;4.70;90.50
47590;DHT22;33316;52.298;9.056;2023-03-05T07:52:23;4.70;90.50
47590;DHT22;33316;52.298;9.056;2023-03-05T07:54:49;4.80;90.50
47590;DHT22;33316;52.298;9.056;2023-03-05T07:57:16;4.70;90.50
47590;DHT22;33316;52.298;9.056;2023-03-05T07:59:42;4.70;90.50
47590;DHT22;33316;52.298;9.056;2023-03-05T08:02:09;4.80;90.50
47590;DHT22;33316;52.298;9.056;2023-03-05T08:04:37;4.80;90.50
47590;DHT22;33316;52.298;9.056;2023-03-05T08:07:04;4.80;90.50
47590;DHT22;33316;52.298;9.056;2023-03-05T08:09:30;4.70;90.40
47590;DHT22;33316;52.298;9.056;2023-03-05T08:11:57;4.70;90.40
47590;DHT22;33316;52.298;9.056;2023-03-05T08:14:24;4.70;90.40
47590;DHT22;33316;52.298;9.056;2023-03-05T08:16:50;4.80;90.40
47590;DHT22;33316;52.298;9.056;2023-03-05T08:19:17;4.80;90.80
47590;DHT22;33316;52.298;9.056;2023-03-05T08:21:45;4.80;90.40
47590;DHT22;33316;52.298;9.056;2023-03-05T08:24:12;4.80;90.40
47590;DHT22;33316;52.298;9.056;2023-03-05T08:26:40;4.90;90.50
47590;DHT22;33316;52.298;9.056;2023-03-05T08:29:07;4.90;90.40
47590;DHT22;33316;52.298;9.056;2023-03-05T08:31:34;4.90;90.40
47590;DHT22;33316;52.298;9.056;2023-03-05T08:34:01;5.00;90.30
47590;DHT22;33316;52.298;9.056;2023-03-05T08:36:27;5.00;90.60
47590;DHT22;33316;52.298;9.056;2023-03-05T08:38:56;5.00;90.20
47590;DHT22;33316;52.298;9.056;2023-03-05T08:41:23;5.10;90.10
47590;DHT22;33316;52.298;9.056;2023-03-05T08:43:52;5.10;90.10
47590;DHT22;33316;52.298;9.056;2023-03-05T08:46:19;5.10;90.10
47590;DHT22;33316;52.298;9.056;2023-03-05T08:48:45;5.20;90.00
47590;DHT22;33316;52.298;9.056;2023-03-05T08:51:13;5.20;90.00
47590;DHT22;33316;52.298;9.056;2023-03-05T08:53:40;5.20;89.80
47590;DHT22;33316;52.298;9.056;2023-03-05T08:56:10;5.30;89.60
47590;DHT22;33316;52.298;9.056;2023-03-05T08:58:38;5.20;89.30
47590;DHT22;33316;52.298;9.056;2023-03-05T09:01:04;5.30;89.20
47590;DHT22;33316;52.298;9.056;2023-03-05T09:03:31;5.30;88.90
47590;DHT22;33316;52.298;9.056;2023-03-05T09:05:58;5.30;88.80
47590;DHT22;33316;52.298;9.056;2023-03-05T09:08:28;5.30;88.80
47590;DHT22;33316;52.298;9.056;2023-03-05T09:10:55;5.40;88.70
47590;DHT22;33316;52.298;9.056;2023-03-05T09:13:23;5.40;88.40
47590;DHT22;33316;52.298;9.056;2023-03-05T09:15:53;5.30;87.80
47590;DHT22;33316;52.298;9.056;2023-03-05T09:18:19;5.40;87.60
47590;DHT22;33316;52.298;9.056;2023-03-05T09:20:46;5.40;87.30
47590;DHT22;33316;52.298;9.056;2023-03-05T09:23:12;5.40;87.20
47590;DHT22;33316;52.298;9.056;2023-03-05T09:25:39;5.40;87.30
47590;DHT22;33316;52.298;9.056;2023-03-05T09:28:06;5.50;87.20
47590;DHT22;33316;52.298;9.056;2023-03-05T09:30:34;5.50;87.00
47590;DHT22;33316;52.298;9.056;2023-03-05T09:33:00;5.50;86.60
47590;DHT22;33316;52.298;9.056;2023-03-05T09:35:27;5.60;86.60
47590;DHT22;33316;52.298;9.056;2023-03-05T09:37:54;5.70;86.70
47590;DHT22;33316;52.298;9.056;2023-03-05T09:40:21;5.70;86.50
47590;DHT22;33316;52.298;9.056;2023-03-05T09:42:53;5.80;86.20
47590;DHT22;33316;52.298;9.056;2023-03-05T09:45:24;5.80;85.60
47590;DHT22;33316;52.298;9.056;2023-03-05T09:47:54;5.80;85.20
47590;DHT22;33316;52.298;9.056;2023-03-05T09:50:37;5.90;84.80
47590;DHT22;33316;52.298;9.056;2023-03-05T09:53:19;5.90;84.50
47590;DHT22;33316;52.298;9.056;2023-03-05T09:55:47;6.00;84.00
47590;DHT22;33316;52.298;9.056;2023-03-05T09:58:15;6.00;84.10
47590;DHT22;33316;52.298;9.056;2023-03-05T10:00:43;6.10;84.20
47590;DHT22;33316;52.298;9.056;2023-03-05T10:03:16;6.10;83.60
47590;DHT22;33316;52.298;9.056;2023-03-05T10:05:51;6.10;82.80
47590;DHT22;33316;52.298;9.056;2023-03-05T10:08:22;6.10;82.70
47590;DHT22;33316;52.298;9.056;2023-03-05T10:10:52;6.10;82.80
47590;DHT22;33316;52.298;9.056;2023-03-05T10:13:21;6.10;82.80
47590;DHT22;33316;52.298;9.056;2023-03-05T10:15:50;6.20;82.90
47590;DHT22;33316;52.298;9.056;2023-03-05T10:18:23;6.20;82.70
47590;DHT22;33316;52.298;9.056;2023-03-05T10:20:54;6.20;82.40
47590;DHT22;33316;52.298;9.056;2023-03-05T10:23:22;6.20;82.40
47590;DHT22;33316;52.298;9.056;2023-03-05T10:25:54;6.30;82.20
47590;DHT22;33316;52.298;9.056;2023-03-05T10:28:24;6.30;82.00
47590;DHT22;33316;52.298;9.056;2023-03-05T10:31:03;6.30;81.90
47590;DHT22;33316;52.298;9.056;2023-03-05T10:33:41;6.40;81.60
47590;DHT22;33316;52.298;9.056;2023-03-05T10:36:18;6.40;81.20
47590;DHT22;33316;52.298;9.056;2023-03-05T10:38:52;6.50;81.30
47590;DHT22;33316;52.298;9.056;2023-03-05T10:41:23;6.50;81.40
47590;DHT22;33316;52.298;9.056;2023-03-05T10:43:53;6.50;81.10
47590;DHT22;33316;52.298;9.056;2023-03-05T10:46:29;6.50;80.50
47590;DHT22;33316;52.298;9.056;2023-03-05T10:48:58;6.60;80.20
47590;DHT22;33316;52.298;9.056;2023-03-05T10:51:29;6.50;80.30
47590;DHT22;33316;52.298;9.056;2023-03-05T10:53:59;6.50;80.30
47590;DHT22;33316;52.298;9.056;2023-03-05T10:56:27;6.60;80.30
47590;DHT22;33316;52.298;9.056;2023-03-05T10:58:56;6.60;79.90
47590;DHT22;33316;52.298;9.056;2023-03-05T11:01:23;6.60;79.60
47590;DHT22;33316;52.298;9.056;2023-03-05T11:03:54;6.70;79.90
47590;DHT22;33316;52.298;9.056;2023-03-05T11:06:32;6.70;80.20
47590;DHT22;33316;52.298;9.056;2023-03-05T11:09:14;6.80;80.00
47590;DHT22;33316;52.298;9.056;2023-03-05T11:11:41;6.80;79.80
47590;DHT22;33316;52.298;9.056;2023-03-05T11:14:20;6.80;79.40
47590;DHT22;33316;52.298;9.056;2023-03-05T11:16:49;6.80;79.40
47590;DHT22;33316;52.298;9.056;2023-03-05T11:19:17;6.80;79.10
47590;DHT22;33316;52.298;9.056;2023-03-05T11:21:46;6.80;79.30
47590;DHT22;33316;52.298;9.056;2023-03-05T11:24:14;6.90;79.70
47590;DHT22;33316;52.298;9.056;2023-03-05T11:26:44;7.00;78.90
47590;DHT22;33316;52.298;9.056;2023-03-05T11:29:15;7.00;78.90
47590;DHT22;33316;52.298;9.056;2023-03-05T11:31:42;7.10;78.60
47590;DHT22;33316;52.298;9.056;2023-03-05T11:34:21;7.10;78.50
47590;DHT22;33316;52.298;9.056;2023-03-05T11:36:59;7.20;78.40
47590;DHT22;33316;52.298;9.056;2023-03-05T11:39:28;7.20;77.50
47590;DHT22;33316;52.298;9.056;2023-03-05T11:41:59;7.20;77.40
47590;DHT22;33316;52.298;9.056;2023-03-05T11:44:27;7.20;77.30
47590;DHT22;33316;52.298;9.056;2023-03-05T11:46:55;7.20;76.60
47590;DHT22;33316;52.298;9.056;2023-03-05T11:49:23;7.20;76.50
47590;DHT22;33316;52.298;9.056;2023-03-05T11:51:54;7.30;77.00
47590;DHT22;33316;52.298;9.056;2023-03-05T11:54:27;7.30;77.00
47590;DHT22;33316;52.298;9.056;2023-03-05T11:56:56;7.40;77.00
47590;DHT22;33316;52.298;9.056;2023-03-05T11:59:24;7.40;76.50
47590;DHT22;33316;52.298;9.056;2023-03-05T12:01:53;7.40;76.40
47590;DHT22;33316;52.298;9.056;2023-03-05T12:04:20;7.50;75.80
47590;DHT22;33316;52.298;9.056;2023-03-05T12:06:48;7.50;74.60
47590;DHT22;33316;52.298;9.056;2023-03-05T12:09:17;7.50;75.10
47590;DHT22;33316;52.298;9.056;2023-03-05T12:11:47;7.50;74.70
47590;DHT22;33316;52.298;9.056;2023-03-05T12:14:17;7.50;74.50
47590;DHT22;33316;52.298;9.056;2023-03-05T12:16:45;7.60;75.00
47590;DHT22;33316;52.298;9.056;2023-03-05T12:19:26;7.60;74.50
47590;DHT22;33316;52.298;9.056;2023-03-05T12:21:55;7.60;73.60
47590;DHT22;33316;52.298;9.056;2023-03-05T12:24:32;7.60;73.40
47590;DHT22;33316;52.298;9.056;2023-03-05T12:27:07;7.70;73.60
47590;DHT22;33316;52.298;9.056;2023-03-05T12:29:38;7.70;72.90
47590;DHT22;33316;52.298;9.056;2023-03-05T12:32:49;7.70;73.20
47590;DHT22;33316;52.298;9.056;2023-03-05T12:34:55;7.70;73.20
47590;DHT22;33316;52.298;9.056;2023-03-05T12:40:18;7.70;72.70
47590;DHT22;33316;52.298;9.056;2023-03-05T12:42:47;7.70;73.00
47590;DHT22;33316;52.298;9.056;2023-03-05T12:45:24;7.70;73.10
47590;DHT22;33316;52.298;9.056;2023-03-05T12:50:49;7.70;73.00
47590;DHT22;33316;52.298;9.056;2023-03-05T12:53:17;7.70;73.30
47590;DHT22;33316;52.298;9.056;2023-03-05T12:55:48;7.70;73.60
47590;DHT22;33316;52.298;9.056;2023-03-05T12:58:18;7.70;73.50
47590;DHT22;33316;52.298;9.056;2023-03-05T13:00:46;7.70;73.40
47590;DHT22;33316;52.298;9.056;2023-03-05T13:03:15;7.70;73.50
47590;DHT22;33316;52.298;9.056;2023-03-05T13:05:47;7.80;72.90
47590;DHT22;33316;52.298;9.056;2023-03-05T13:08:17;7.80;73.20
47590;DHT22;33316;52.298;9.056;2023-03-05T13:10:49;7.80;73.40
47590;DHT22;33316;52.298;9.056;2023-03-05T13:13:18;7.80;73.40
47590;DHT22;33316;52.298;9.056;2023-03-05T13:15:45;7.80;73.00
47590;DHT22;33316;52.298;9.056;2023-03-05T13:18:15;7.80;73.50
47590;DHT22;33316;52.298;9.056;2023-03-05T13:20:44;7.80;73.80
47590;DHT22;33316;52.298;9.056;2023-03-05T13:23:14;7.80;72.80
47590;DHT22;33316;52.298;9.056;2023-03-05T13:25:42;7.80;72.60
47590;DHT22;33316;52.298;9.056;2023-03-05T13:28:10;7.70;72.20
47590;DHT22;33316;52.298;9.056;2023-03-05T13:30:38;7.70;72.00
47590;DHT22;33316;52.298;9.056;2023-03-05T13:33:12;7.70;72.20
47590;DHT22;33316;52.298;9.056;2023-03-05T13:35:43;7.70;72.10
47590;DHT22;33316;52.298;9.056;2023-03-05T13:38:14;7.60;71.90
47590;DHT22;33316;52.298;9.056;2023-03-05T13:40:45;7.60;71.30
47590;DHT22;33316;52.298;9.056;2023-03-05T13:43:25;7.50;71.60
47590;DHT22;33316;52.298;9.056;2023-03-05T13:45:53;7.60;72.40
47590;DHT22;33316;52.298;9.056;2023-03-05T13:48:22;7.60;71.30
47590;DHT22;33316;52.298;9.056;2023-03-05T13:50:52;7.50;71.60
47590;DHT22;33316;52.298;9.056;2023-03-05T13:53:19;7.50;71.80
47590;DHT22;33316;52.298;9.056;2023-03-05T13:55:47;7.60;72.00
47590;DHT22;33316;52.298;9.056;2023-03-05T14:01:08;7.50;70.90
47590;DHT22;33316;52.298;9.056;2023-03-05T14:03:37;7.50;71.10
47590;DHT22;33316;52.298;9.056;2023-03-05T14:06:05;7.50;70.80
47590;DHT22;33316;52.298;9.056;2023-03-05T14:08:33;7.50;71.40
47590;DHT22;33316;52.298;9.056;2023-03-05T14:10:59;7.50;71.40
47590;DHT22;33316;52.298;9.056;2023-03-05T14:13:36;7.50;71.30
47590;DHT22;33316;52.298;9.056;2023-03-05T14:16:05;7.50;71.40
47590;DHT22;33316;52.298;9.056;2023-03-05T14:18:32;7.50;71.40
47590;DHT22;33316;52.298;9.056;2023-03-05T14:21:00;7.50;71.70
47590;DHT22;33316;52.298;9.056;2023-03-05T14:23:32;7.50;72.00
47590;DHT22;33316;52.298;9.056;2023-03-05T14:28:48;7.50;71.40
47590;DHT22;33316;52.298;9.056;2023-03-05T14:31:17;7.50;71.80
47590;DHT22;33316;52.298;9.056;2023-03-05T14:33:44;7.50;72.20
47590;DHT22;33316;52.298;9.056;2023-03-05T14:36:10;7.60;71.90
47590;DHT22;33316;52.298;9.056;2023-03-05T14:38:38;7.60;71.40
47590;DHT22;33316;52.298;9.056;2023-03-05T14:41:18;7.50;71.40
47590;DHT22;33316;52.298;9.056;2023-03-05T14:43:44;7.60;71.60
47590;DHT22;33316;52.298;9.056;2023-03-05T14:46:11;7.50;71.20
47590;DHT22;33316;52.298;9.056;2023-03-05T14:48:39;7.50;71.20
47590;DHT22;33316;52.298;9.056;2023-03-05T14:51:06;7.50;71.30
47590;DHT22;33316;52.298;9.056;2023-03-05T14:53:33;7.50;70.40
47590;DHT22;33316;52.298;9.056;2023-03-05T14:56:03;7.40;71.70
47590;DHT22;33316;52.298;9.056;2023-03-05T14:58:31;7.40;71.80
47590;DHT22;33316;52.298;9.056;2023-03-05T15:00:59;7.30;72.10
47590;DHT22;33316;52.298;9.056;2023-03-05T15:03:26;7.30;72.20
47590;DHT22;33316;52.298;9.056;2023-03-05T15:05:55;7.30;72.40
47590;DHT22;33316;52.298;9.056;2023-03-05T15:08:23;7.30;73.00
47590;DHT22;33316;52.298;9.056;2023-03-05T15:10:50;7.30;73.40
47590;DHT22;33316;52.298;9.056;2023-03-05T15:13:17;7.30;73.30
47590;DHT22;33316;52.298;9.056;2023-03-05T15:15:44;7.40;73.50
47590;DHT22;33316;52.298;9.056;2023-03-05T15:18:14;7.40;73.70
47590;DHT22;33316;52.298;9.056;2023-03-05T15:20:42;7.40;73.70
47590;DHT22;33316;52.298;9.056;2023-03-05T15:23:10;7.40;73.60
47590;DHT22;33316;52.298;9.056;2023-03-05T15:25:37;7.40;73.50
47590;DHT22;33316;52.298;9.056;2023-03-05T15:28:06;7.40;73.30
47590;DHT22;33316;52.298;9.056;2023-03-05T15:30:33;7.40;72.90
47590;DHT22;33316;52.298;9.056;2023-03-05T15:33:02;7.40;73.20
47590;DHT22;33316;52.298;9.056;2023-03-05T15:35:29;7.30;73.30
47590;DHT22;33316;52.298;9.056;2023-03-05T15:37:56;7.30;73.30
47590;DHT22;33316;52.298;9.056;2023-03-05T15:40:24;7.30;73.40
47590;DHT22;33316;52.298;9.056;2023-03-05T15:42:52;7.30;73.40
47590;DHT22;33316;52.298;9.056;2023-03-05T15:45:18;7.20;73.40
47590;DHT22;33316;52.298;9.056;2023-03-05T15:47:46;7.20;73.20
47590;DHT22;33316;52.298;9.056;2023-03-05T15:50:13;7.20;73.70
47590;DHT22;33316;52.298;9.056;2023-03-05T15:52:40;7.20;74.00
47590;DHT22;33316;52.298;9.056;2023-03-05T15:55:07;7.20;74.00
47590;DHT22;33316;52.298;9.056;2023-03-05T15:57:36;7.20;73.90
47590;DHT22;33316;52.298;9.056;2023-03-05T16:00:03;7.20;74.00
47590;DHT22;33316;52.298;9.056;2023-03-05T16:02:30;7.20;73.70